1882 Major Hurricane NOT_NAMED (1882278N11279)


IBTrACS version v04r00. Visit IBTrACS website for data access.
Please direct all questions to the IBTrACS Q and A forum

Storm track - Intensity - Wind Radii - Intensity Data - Source Data - All data

Summary Information

Storm ID 1882278N11279
Start Oct 4 12Z
Landfall Oct 9 06Z, Oct 11 04Z
Max Intensity 120 kt (Oct 8 18Z), 975 mb (Oct 9 00Z)
End Oct 18 12Z
ATCF IDs ,AL061882
Track status Best track data.

Storm track plot

Map of storm track

Intensity plots

Map of storm track

Radial wind information

No radial wind information for this storm


Position and Intensity Table

BASIN ISO_TIME_________ NATURE LAT LON WMO WIND USA WIND MLC WIND MLC PRES
degrees north degrees east kts kts kts mb
NA 1882-10-04 12:00:00 TS 11.00 -81.40 30
NA 15:00:00 TS 11.14 -81.49 32
NA 18:00:00 TS 11.30 -81.60 35
NA 21:00:00 TS 11.49 -81.74 37
NA 1882-10-05 00:00:00 TS 12.53 -81.80 40 40 40
NA 03:00:00 TS 13.15 -81.91 40 40
NA 06:00:00 TS 13.60 -82.02 40 40 40
NA 09:00:00 TS 13.95 -82.11 40 40
NA 12:00:00 TS 14.17 -82.17 40 40 40
NA 15:00:00 TS 14.44 -82.18 40 42
NA 18:00:00 TS 14.73 -82.17 40 40 45
NA 21:00:00 TS 15.02 -82.13 45 47
NA 1882-10-06 00:00:00 TS 15.30 -82.10 50 50 50
NA 03:00:00 TS 15.59 -82.11 50 52
NA 06:00:00 TS 15.87 -82.13 50 50 55
NA 09:00:00 TS 16.13 -82.14 50 57
NA 12:00:00 TS 16.40 -82.13 50 50 60
NA 15:00:00 TS 16.74 -82.12 50 60
NA 18:00:00 TS 17.07 -82.10 50 50 60
NA 21:00:00 TS 17.31 -82.06 55 62
NA 1882-10-07 00:00:00 TS 17.57 -82.07 60 60 65
NA 03:00:00 TS 17.91 -82.17 60 65
NA 06:00:00 TS 18.27 -82.30 60 60 65
NA 09:00:00 TS 18.57 -82.37 65 67
NA 12:00:00 TS 18.83 -82.43 70 70 70
NA 15:00:00 TS 19.04 -82.50 70 70
NA 18:00:00 TS 19.20 -82.57 70 70 70
NA 21:00:00 TS 19.34 -82.63 75 75
NA 1882-10-08 00:00:00 TS 19.47 -82.70 80 80 80
NA 03:00:00 TS 19.63 -82.77 85 85
NA 06:00:00 TS 19.80 -82.87 90 90 90
NA 09:00:00 TS 19.93 -83.03 95 95
NA 12:00:00 TS 20.10 -83.20 100 100 100
NA 15:00:00 TS 20.39 -83.32 105 110
NA 18:00:00 TS 20.77 -83.43 110 110 120
NA 21:00:00 TS 21.19 -83.56 115 110
NA 1882-10-09 00:00:00 TS 21.63 -83.67 120 120 100 975
NA 03:00:00 TS 22.01 -83.74 110 95
NA 06:00:00 TS 22.40 -83.80 100 100 90
NA 09:00:00 TS 22.90 -83.86 95 90
NA 12:00:00 TS 23.40 -83.90 90 90 90
NA 15:00:00 TS 23.74 -83.94 85 85
NA 18:00:00 TS 24.10 -83.97 80 80 80
NA 21:00:00 TS 24.62 -83.97 75 75
NA 1882-10-10 00:00:00 TS 25.20 -83.97 70 70 70
NA 03:00:00 TS 25.77 -83.95 70 70
NA 06:00:00 TS 26.33 -83.93 70 70 70
NA 09:00:00 TS 26.91 -83.91 70 70
NA 12:00:00 TS 27.43 -83.87 70 70 70
NA 15:00:00 TS 27.86 -83.76 70 70
NA 18:00:00 TS 28.23 -83.63 70 70 70
NA 21:00:00 TS 28.63 -83.53 70 70
NA 1882-10-11 00:00:00 TS 29.00 -83.40 70 70 70
NA 03:00:00 TS 29.31 -83.21 70 65
NA 04:00:00 TS 29.42 -83.13 70 70 63
NA 06:00:00 TS 29.70 -82.97 60 60 60
NA 09:00:00 TS 30.06 -82.82 55 55
NA 12:00:00 TS 30.40 -82.57 50 50 50
NA 15:00:00 TS 30.76 -82.00 50 50
NA 18:00:00 TS 31.13 -81.30 50 50 50
NA 21:00:00 TS 31.53 -80.68 55 55
NA 1882-10-12 00:00:00 TS 31.97 -80.03 60 60 60
NA 03:00:00 TS 32.44 -79.32 60 60
NA 06:00:00 TS 32.90 -78.57 60 60 60
NA 09:00:00 TS 33.33 -77.81 65 62
NA 12:00:00 TS 33.70 -77.07 70 70 65
NA 15:00:00 TS 33.95 -76.36 70 65
NA 18:00:00 TS 34.17 -75.70 70 70 65
NA 21:00:00 TS 34.44 -75.12 70 65
NA 1882-10-13 00:00:00 TS 34.70 -74.53 70 70 65
NA 03:00:00 TS 34.90 -73.85 70 65
NA 06:00:00 TS 35.10 -73.17 70 70 65
NA 09:00:00 TS 35.36 -72.50 70 65
NA 12:00:00 TS 35.60 -71.93 70 70 65
NA 15:00:00 TS 35.76 -71.52 70 67
NA 18:00:00 TS 35.87 -71.20 70 70 70
NA 21:00:00 TS 35.97 -70.91 70 70
NA 1882-10-14 00:00:00 TS 36.07 -70.63 70 70 70
NA 03:00:00 TS 36.16 -70.31 70 70
NA 06:00:00 TS 36.27 -70.00 70 70 70
NA 09:00:00 TS 36.38 -69.74 70 70
NA 12:00:00 TS 36.50 -69.50 70 70 70
NA 15:00:00 TS 36.64 -69.24 70 70
NA 18:00:00 TS 36.80 -68.97 70 70 70
NA 21:00:00 TS 36.97 -68.70 65 70
NA 1882-10-15 00:00:00 TS 37.13 -68.43 60 60 70
NA 03:00:00 TS 37.28 -68.21 60 70
NA 06:00:00 TS 37.43 -67.97 60 60 70
NA 09:00:00 TS 37.58 -67.65 60 70
NA 12:00:00 TS 37.82 -67.54 60 60 70 985
NA 15:00:00 TS 38.23 -67.62 60 70
NA 18:00:00 TS 38.87 -68.10 60 60 70
NA 21:00:00 TS 40.15 -69.44 67
NA 1882-10-16 00:00:00 TS 40.50 -69.50 65
NA 03:00:00 TS 39.90 -70.06 62
NA 06:00:00 TS 38.90 -70.80 60
NA 09:00:00 TS 38.03 -71.44 57
NA 12:00:00 TS 37.30 -72.00 55
NA 15:00:00 TS 36.92 -72.44 55
NA 18:00:00 TS 36.70 -72.80 55
NA 21:00:00 TS 36.40 -73.15 52
NA 1882-10-17 00:00:00 TS 36.10 -73.50 50
NA 03:00:00 TS 35.79 -73.90 47
NA 06:00:00 TS 35.50 -74.30 45
NA 09:00:00 TS 35.17 -74.74 42
NA 12:00:00 TS 35.00 -75.00 40 1004
NA 15:00:00 TS 35.17 -74.88 37
NA 18:00:00 TS 35.50 -74.60 35
NA 21:00:00 TS 35.75 -74.40 32
NA 1882-10-18 00:00:00 TS 36.00 -74.20 30
NA 03:00:00 TS 36.25 -73.99 27
NA 06:00:00 ET 36.50 -73.80 25
NA 09:00:00 ET 36.75 -73.64 22
NA 12:00:00 ET 37.00 -73.50 20 1014

Source Information

Agency Information
USA hurdat2-1851-2019-042820.txt:Line=4572:UNNAMED
TOKYO
CMA
HKO
NEWDELHI
REUNION
BOM
NADI
WELLINGTON
DS824
TD9636
TD9635
NEUMANN
MLC

All available IBTrACS Data

SEASON BASIN SUBBASIN ISO_TIME_________ NATURE LAT LON WMO WIND WMO AGENCY DIST2LAND LANDFALL IFLAG USA AGENCY USA ATCF_ID USA LAT USA LON USA RECORD USA STATUS USA WIND USA SSHS MLC LAT MLC LON MLC CLASS MLC WIND MLC PRES STORM SPEED STORM DIR
Year degrees north degrees east kts km km degrees north degrees east kts 1 degrees north degrees east kts mb kts degrees
1882 NA CS 1882-10-04 12:00:00 TS 11.00 -81.40 204 204 _____________O -1 11.00 -81.40 TD 30 3 327
1882 NA CS 15:00:00 TS 11.14 -81.49 205 203 _____________P -1 11.14 -81.49 TD 32 4 327
1882 NA CS 18:00:00 TS 11.30 -81.60 211 203 _____________O -1 11.30 -81.60 TS 35 4 325
1882 NA CS 21:00:00 TS 11.49 -81.74 207 184 _____________P -1 11.49 -81.74 TS 37 13 351
1882 NA CS 1882-10-05 00:00:00 TS 12.53 -81.80 40 hurdat_atl 184 173 O____________O hurdat_atl AL061882 14.20 -81.60 TS 40 0 11.70 -81.90 TS 40 17 354
1882 NA CS 03:00:00 TS 13.15 -81.91 173 151 P____________P AL061882 14.40 -81.77 TS 40 0 11.90 -82.05 TS 40 11 349
1882 NA CS 06:00:00 TS 13.60 -82.02 40 hurdat_atl 151 126 O____________O hurdat_atl AL061882 14.60 -81.90 TS 40 0 12.10 -82.20 TS 40 8 347
1882 NA CS 09:00:00 TS 13.95 -82.11 123 108 P____________P AL061882 14.80 -81.97 TS 40 0 12.26 -82.39 TS 40 6 346
1882 NA CS 12:00:00 TS 14.17 -82.17 40 hurdat_atl 108 107 O____________O hurdat_atl AL061882 15.00 -82.00 TS 40 0 12.50 -82.50 TS 40 5 351
1882 NA CS 15:00:00 TS 14.44 -82.18 108 102 P____________P AL061882 15.20 -82.06 TS 40 0 12.91 -82.44 TS 42 6 0
1882 NA CS 18:00:00 TS 14.73 -82.17 40 hurdat_atl 102 97 O____________O hurdat_atl AL061882 15.40 -82.10 TS 40 0 13.40 -82.30 TS 45 6 5
1882 NA CS 21:00:00 TS 15.02 -82.13 107 107 P____________P AL061882 15.60 -82.09 TS 45 0 13.85 -82.21 TS 47 6 7
1882 NA CS 1882-10-06 00:00:00 TS 15.30 -82.10 50 hurdat_atl 112 112 O____________O hurdat_atl AL061882 15.80 -82.10 TS 50 0 14.30 -82.10 TS 50 6 1
1882 NA CS 03:00:00 TS 15.59 -82.11 126 126 P____________P AL061882 16.00 -82.19 TS 50 0 14.76 -81.95 TS 52 6 356
1882 NA CS 06:00:00 TS 15.87 -82.13 50 hurdat_atl 147 147 O____________O hurdat_atl AL061882 16.20 -82.30 TS 50 0 15.20 -81.80 TS 55 5 0
1882 NA CS 09:00:00 TS 16.13 -82.14 163 163 P____________P AL061882 16.40 -82.36 TS 50 0 15.58 -81.70 TS 57 5 2
1882 NA CS 12:00:00 TS 16.40 -82.13 50 hurdat_atl 185 185 O____________O hurdat_atl AL061882 16.60 -82.40 TS 50 0 16.00 -81.60 TS 60 6 2
1882 NA CS 15:00:00 TS 16.74 -82.12 209 209 P____________P AL061882 16.81 -82.45 TS 50 0 16.58 -81.46 TS 60 7 4
1882 NA CS 18:00:00 TS 17.07 -82.10 50 hurdat_atl 244 244 O____________O hurdat_atl AL061882 17.00 -82.50 TS 50 0 17.20 -81.30 TS 60 6 6
1882 NA CS 21:00:00 TS 17.31 -82.06 263 263 P____________P AL061882 17.09 -82.54 TS 55 0 17.76 -81.11 TS 62 5 5
1882 NA CS 1882-10-07 00:00:00 TS 17.57 -82.07 60 hurdat_atl 292 292 O____________O hurdat_atl AL061882 17.20 -82.60 TS 60 0 18.30 -81.00 HU 65 6 350
1882 NA CS 03:00:00 TS 17.91 -82.17 317 317 P____________P AL061882 17.44 -82.70 TS 60 0 18.85 -81.11 HU 65 7 343
1882 NA CS 06:00:00 TS 18.27 -82.30 60 hurdat_atl 350 315 O____________O hurdat_atl AL061882 17.70 -82.80 TS 60 0 19.40 -81.30 HU 65 7 344
1882 NA CS 09:00:00 TS 18.57 -82.37 315 293 P____________P AL061882 17.86 -82.86 TS 65 1 20.01 -81.41 HU 67 6 348
1882 NA CS 12:00:00 TS 18.83 -82.43 70 hurdat_atl 293 270 O____________O hurdat_atl AL061882 18.00 -82.90 HU 70 1 20.50 -81.50 HU 70 5 345
1882 NA CS 15:00:00 TS 19.04 -82.50 270 246 P____________P AL061882 18.20 -82.95 HU 70 1 20.72 -81.60 HU 70 4 341
1882 NA CS 18:00:00 TS 19.20 -82.57 70 hurdat_atl 246 235 O____________O hurdat_atl AL061882 18.40 -83.00 HU 70 1 20.80 -81.70 HU 70 3 337
1882 NA CS 21:00:00 TS 19.34 -82.63 235 212 P____________P AL061882 18.55 -83.05 HU 75 1 20.91 -81.79 HU 75 3 335
1882 NA CS 1882-10-08 00:00:00 TS 19.47 -82.70 80 hurdat_atl 212 201 O____________O hurdat_atl AL061882 18.70 -83.10 HU 80 1 21.00 -81.90 HU 80 3 336
1882 NA CS 03:00:00 TS 19.63 -82.77 201 178 P____________P AL061882 18.89 -83.15 HU 85 2 21.11 -82.01 HU 85 4 335
1882 NA CS 06:00:00 TS 19.80 -82.87 90 hurdat_atl 179 168 O____________O hurdat_atl AL061882 19.10 -83.20 HU 90 2 21.20 -82.20 HU 90 4 320
1882 NA CS 09:00:00 TS 19.93 -83.03 169 151 P____________P AL061882 19.28 -83.24 HU 95 2 21.22 -82.60 HU 95 4 314
1882 NA CS 12:00:00 TS 20.10 -83.20 100 hurdat_atl 151 123 O____________O hurdat_atl AL061882 19.50 -83.30 HU 100 3 21.30 -83.00 MH 100 5 329
1882 NA CS 15:00:00 TS 20.39 -83.32 123 98 P____________P AL061882 19.81 -83.39 HU 105 3 21.56 -83.19 MH 110 7 342
1882 NA CS 18:00:00 TS 20.77 -83.43 110 hurdat_atl 88 68 O____________O hurdat_atl AL061882 20.20 -83.50 HU 110 3 21.90 -83.30 MH 120 8 345
1882 NA CS 21:00:00 TS 21.19 -83.56 70 45 P____________P AL061882 20.68 -83.60 HU 115 4 22.22 -83.47 MH 110 9 346
1882 NA CS 1882-10-09 00:00:00 TS 21.63 -83.67 120 hurdat_atl 45 22 O____________O hurdat_atl AL061882 21.20 -83.70 HU 120 4 22.50 -83.60 MH 100 975 8 348
1882 NA CS 03:00:00 TS 22.01 -83.74 22 0 P____________P AL061882 21.68 -83.81 HU 110 3 22.66 -83.62 MH 95 8 351
1882 NA NA 06:00:00 TS 22.40 -83.80 100 hurdat_atl 0 0 O____________O hurdat_atl AL061882 22.20 -83.90 HU 100 3 22.80 -83.60 HU 90 9 353
1882 NA GM 09:00:00 TS 22.90 -83.86 22 22 P____________P AL061882 22.86 -83.96 HU 95 2 23.00 -83.65 HU 90 10 355
1882 NA GM 12:00:00 TS 23.40 -83.90 90 hurdat_atl 70 70 O____________O hurdat_atl AL061882 23.50 -84.00 HU 90 2 23.20 -83.70 HU 90 8 355
1882 NA GM 15:00:00 TS 23.74 -83.94 102 102 P____________P AL061882 23.97 -84.06 HU 85 2 23.28 -83.71 HU 85 7 355
1882 NA GM 18:00:00 TS 24.10 -83.97 80 hurdat_atl 147 147 O____________O hurdat_atl AL061882 24.40 -84.10 HU 80 1 23.50 -83.70 HU 80 9 358
1882 NA GM 21:00:00 TS 24.62 -83.97 199 199 P____________P AL061882 24.89 -84.11 HU 75 1 24.08 -83.71 HU 75 11 0
1882 NA GM 1882-10-10 00:00:00 TS 25.20 -83.97 70 hurdat_atl 242 209 O____________O hurdat_atl AL061882 25.40 -84.10 HU 70 1 24.80 -83.70 HU 70 12 1
1882 NA GM 03:00:00 TS 25.77 -83.95 202 168 P____________P AL061882 25.95 -84.11 HU 70 1 25.40 -83.65 HU 70 11 2
1882 NA GM 06:00:00 TS 26.33 -83.93 70 hurdat_atl 168 136 O____________O hurdat_atl AL061882 26.50 -84.10 HU 70 1 26.00 -83.60 HU 70 11 2
1882 NA GM 09:00:00 TS 26.91 -83.91 136 113 P____________P AL061882 27.02 -84.06 HU 70 1 26.68 -83.61 HU 70 11 3
1882 NA GM 12:00:00 TS 27.43 -83.87 70 hurdat_atl 113 89 O____________O hurdat_atl AL061882 27.50 -84.00 HU 70 1 27.30 -83.60 HU 70 10 8
1882 NA GM 15:00:00 TS 27.86 -83.76 88 76 P____________P AL061882 27.92 -83.91 HU 70 1 27.75 -83.47 HU 70 8 14
1882 NA GM 18:00:00 TS 28.23 -83.63 70 hurdat_atl 76 76 O____________O hurdat_atl AL061882 28.30 -83.80 HU 70 1 28.10 -83.30 HU 70 8 15
1882 NA GM 21:00:00 TS 28.63 -83.53 77 36 P____________P AL061882 28.72 -83.72 HU 70 1 28.46 -83.15 HU 70 8 15
1882 NA GM 1882-10-11 00:00:00 TS 29.00 -83.40 70 hurdat_atl 36 9 O____________O hurdat_atl AL061882 29.10 -83.60 HU 70 1 28.80 -83.00 HU 70 7 23
1882 NA GM 03:00:00 TS 29.31 -83.21 9 0 P____________P AL061882 29.38 -83.39 HU 70 1 29.15 -82.84 HU 65 7 29
1882 NA NA 04:00:00 TS 29.42 -83.13 70 hurdat_atl 0 0 O____________P hurdat_atl AL061882 29.50 -83.30 L HU 70 1 29.27 -82.79 HU 63 9 28
1882 NA NA 06:00:00 TS 29.70 -82.97 60 hurdat_atl 0 0 O____________O hurdat_atl AL061882 29.80 -83.10 TS 60 0 29.50 -82.70 TS 60 8 23
1882 NA NA 09:00:00 TS 30.06 -82.82 0 0 P____________P AL061882 30.17 -82.88 TS 55 0 29.84 -82.70 TS 55 8 26
1882 NA NA 12:00:00 TS 30.40 -82.57 50 hurdat_atl 0 0 O____________O hurdat_atl AL061882 30.50 -82.60 TS 50 0 30.20 -82.50 TS 50 10 45
1882 NA NA 15:00:00 TS 30.76 -82.00 0 0 P____________P AL061882 30.84 -82.09 TS 50 0 30.59 -81.81 TS 50 13 56
1882 NA NA 18:00:00 TS 31.13 -81.30 50 hurdat_atl 9 9 O____________O hurdat_atl AL061882 31.20 -81.50 TS 50 0 31.00 -80.90 TS 50 14 55
1882 NA NA 21:00:00 TS 31.53 -80.68 48 43 P____________P AL061882 31.58 -80.97 TS 55 0 31.45 -80.10 TS 55 14 52
1882 NA NA 1882-10-12 00:00:00 TS 31.97 -80.03 60 hurdat_atl 62 50 O____________O hurdat_atl AL061882 32.00 -80.40 TS 60 0 31.90 -79.30 TS 60 15 52
1882 NA NA 03:00:00 TS 32.44 -79.32 64 52 P____________P AL061882 32.50 -79.73 TS 60 0 32.31 -78.49 TS 60 16 53
1882 NA NA 06:00:00 TS 32.90 -78.57 60 hurdat_atl 65 65 O____________O hurdat_atl AL061882 33.00 -79.00 TS 60 0 32.70 -77.70 TS 60 16 55
1882 NA NA 09:00:00 TS 33.33 -77.81 69 57 P____________P AL061882 33.44 -78.26 TS 65 1 33.11 -76.91 TS 62 15 57
1882 NA NA 12:00:00 TS 33.70 -77.07 70 hurdat_atl 85 85 O____________O hurdat_atl AL061882 33.80 -77.50 HU 70 1 33.50 -76.20 HU 65 14 63
1882 NA NA 15:00:00 TS 33.95 -76.36 78 78 P____________P AL061882 34.02 -76.73 HU 70 1 33.81 -75.62 HU 65 12 68
1882 NA NA 18:00:00 TS 34.17 -75.70 70 hurdat_atl 92 92 O____________O hurdat_atl AL061882 34.20 -76.00 HU 70 1 34.10 -75.10 HU 65 11 65
1882 NA NA 21:00:00 TS 34.44 -75.12 122 118 P____________P AL061882 34.46 -75.40 HU 70 1 34.40 -74.55 HU 65 11 61
1882 NA NA 1882-10-13 00:00:00 TS 34.70 -74.53 70 hurdat_atl 148 147 O____________O hurdat_atl AL061882 34.70 -74.80 HU 70 1 34.70 -74.00 HU 65 11 66
1882 NA NA 03:00:00 TS 34.90 -73.85 176 176 P____________P AL061882 34.85 -74.06 HU 70 1 35.01 -73.45 HU 65 12 70
1882 NA NA 06:00:00 TS 35.10 -73.17 70 hurdat_atl 222 222 O____________O hurdat_atl AL061882 35.00 -73.30 HU 70 1 35.30 -72.90 HU 65 12 68
1882 NA NA 09:00:00 TS 35.36 -72.50 274 274 P____________P AL061882 35.25 -72.61 HU 70 1 35.58 -72.30 HU 65 11 64
1882 NA NA 12:00:00 TS 35.60 -71.93 70 hurdat_atl 325 325 O____________O hurdat_atl AL061882 35.50 -72.00 HU 70 1 35.80 -71.80 HU 65 9 64
1882 NA NA 15:00:00 TS 35.76 -71.52 359 359 P____________P AL061882 35.67 -71.50 HU 70 1 35.92 -71.54 HU 67 7 66
1882 NA NA 18:00:00 TS 35.87 -71.20 70 hurdat_atl 386 386 O____________O hurdat_atl AL061882 35.80 -71.10 HU 70 1 36.00 -71.40 HU 70 5 66
1882 NA NA 21:00:00 TS 35.97 -70.91 413 413 P____________P AL061882 35.91 -70.74 HU 70 1 36.10 -71.24 HU 70 5 66
1882 NA NA 1882-10-14 00:00:00 TS 36.07 -70.63 70 hurdat_atl 441 441 O____________O hurdat_atl AL061882 36.00 -70.40 HU 70 1 36.20 -71.10 HU 70 5 68
1882 NA NA 03:00:00 TS 36.16 -70.31 468 468 P____________P AL061882 36.09 -69.99 HU 70 1 36.31 -70.95 HU 70 5 69
1882 NA NA 06:00:00 TS 36.27 -70.00 70 hurdat_atl 496 496 O____________O hurdat_atl AL061882 36.20 -69.60 HU 70 1 36.40 -70.80 HU 70 5 65
1882 NA NA 09:00:00 TS 36.38 -69.74 520 520 P____________P AL061882 36.35 -69.29 HU 70 1 36.43 -70.64 HU 70 5 60
1882 NA NA 12:00:00 TS 36.50 -69.50 70 hurdat_atl 532 532 O____________O hurdat_atl AL061882 36.50 -69.00 HU 70 1 36.50 -70.50 HU 70 5 57
1882 NA NA 15:00:00 TS 36.64 -69.24 549 542 P____________P AL061882 36.60 -68.66 HU 70 1 36.73 -70.39 HU 70 5 55
1882 NA NA 18:00:00 TS 36.80 -68.97 70 hurdat_atl 543 529 O____________O hurdat_atl AL061882 36.70 -68.30 HU 70 1 37.00 -70.30 HU 70 5 53
1882 NA NA 21:00:00 TS 36.97 -68.70 529 521 P____________P AL061882 36.85 -67.94 HU 65 1 37.20 -70.20 HU 70 5 52
1882 NA NA 1882-10-15 00:00:00 TS 37.13 -68.43 60 hurdat_atl 527 510 O____________O hurdat_atl AL061882 37.00 -67.60 TS 60 0 37.40 -70.10 HU 70 5 51
1882 NA NA 03:00:00 TS 37.28 -68.21 513 505 P____________P AL061882 37.10 -67.31 TS 60 0 37.65 -70.00 HU 70 5 51
1882 NA NA 06:00:00 TS 37.43 -67.97 60 hurdat_atl 508 496 O____________O hurdat_atl AL061882 37.20 -67.00 TS 60 0 37.90 -69.90 HU 70 5 56
1882 NA NA 09:00:00 TS 37.58 -67.65 496 483 P____________P AL061882 37.34 -66.58 TS 60 0 38.06 -69.79 HU 70 5 41
1882 NA NA 12:00:00 TS 37.82 -67.54 60 hurdat_atl 483 439 O____________O hurdat_atl AL061882 37.50 -66.10 TS 60 0 38.30 -69.70 HU 70 985 6 1
1882 NA NA 15:00:00 TS 38.23 -67.62 439 360 P____________P AL061882 37.65 -65.60 TS 60 0 38.80 -69.64 HU 70 11 337
1882 NA NA 18:00:00 TS 38.87 -68.10 60 hurdat_atl 350 184 O____________O hurdat_atl AL061882 37.80 -65.10 TS 60 0 39.40 -69.60 HU 70 24 324
1882 NA NA 21:00:00 TS 40.15 -69.44 174 139 _____________P AL061882 TS -1 40.15 -69.44 HU 67 20 327
1882 NA NA 1882-10-16 00:00:00 TS 40.50 -69.50 139 137 _____________O -1 40.50 -69.50 HU 65 5 242
1882 NA NA 03:00:00 TS 39.90 -70.06 185 185 _____________P -1 39.90 -70.06 HU 62 19 212
1882 NA NA 06:00:00 TS 38.90 -70.80 261 261 _____________O -1 38.90 -70.80 TS 60 22 210
1882 NA NA 09:00:00 TS 38.03 -71.44 301 293 _____________P -1 38.03 -71.44 TS 57 19 211
1882 NA NA 12:00:00 TS 37.30 -72.00 293 277 _____________O -1 37.30 -72.00 TS 55 14 216
1882 NA NA 15:00:00 TS 36.92 -72.44 283 261 _____________P -1 36.92 -72.44 TS 55 9 227
1882 NA NA 18:00:00 TS 36.70 -72.80 261 225 _____________O -1 36.70 -72.80 TS 55 8 228
1882 NA NA 21:00:00 TS 36.40 -73.15 225 182 _____________P -1 36.40 -73.15 TS 52 8 223
1882 NA NA 1882-10-17 00:00:00 TS 36.10 -73.50 182 143 _____________O -1 36.10 -73.50 TS 50 9 225
1882 NA NA 03:00:00 TS 35.79 -73.90 143 113 _____________P -1 35.79 -73.90 TS 47 9 227
1882 NA NA 06:00:00 TS 35.50 -74.30 113 98 _____________O -1 35.50 -74.30 TS 45 9 228
1882 NA NA 09:00:00 TS 35.17 -74.74 98 91 _____________P -1 35.17 -74.74 TS 42 8 229
1882 NA NA 12:00:00 TS 35.00 -75.00 92 84 _____________O -1 35.00 -75.00 TS 40 1004 1 274
1882 NA NA 15:00:00 TS 35.17 -74.88 84 84 _____________P -1 35.17 -74.88 TS 37 6 33
1882 NA NA 18:00:00 TS 35.50 -74.60 87 87 _____________O -1 35.50 -74.60 TS 35 7 34
1882 NA NA 21:00:00 TS 35.75 -74.40 99 98 _____________P -1 35.75 -74.40 TS 32 6 33
1882 NA NA 1882-10-18 00:00:00 TS 36.00 -74.20 118 118 _____________O -1 36.00 -74.20 TD 30 6 33
1882 NA NA 03:00:00 TS 36.25 -73.99 145 141 _____________P -1 36.25 -73.99 TD 27 6 33
1882 NA NA 06:00:00 ET 36.50 -73.80 170 170 _____________O -1 36.50 -73.80 EX 25 6 30
1882 NA NA 09:00:00 ET 36.75 -73.64 198 195 _____________P -1 36.75 -73.64 EX 22 6 26
1882 NA NA 12:00:00 ET 37.00 -73.50 197 _____________O -1 37.00 -73.50 EX 20 1014 5 24